Time;durP1;ratioP1;P1;durP2;ratioP2;P2;SDS_P1;SDS_P2;PMS_P1;PMS_P2;Temp;Humidity;BMP_temperature;BMP_pressure;BME280_temperature;BME280_humidity;BME280_pressure;Samples;Min_cycle;Max_cycle;Signal;HPM_P1;HPM_P2
2022/05/19 00:00:00;;;;;;;10.27;4.32;;;;;;;;;;4950370;29;20066;-64
2022/05/19 00:02:39;;;;;;;10.35;4.55;;;;;;;;;;4949264;29;20143;-64
2022/05/19 00:05:10;;;;;;;7.90;4.10;;;;;;;;;;4950491;29;20051;-63
2022/05/19 00:07:42;;;;;;;11.07;4.50;;;;;;;;;;4950111;29;20062;-63
2022/05/19 00:10:14;;;;;;;;;;;;;;;;;;4950035;29;20063;-61
2022/05/19 00:12:50;;;;;;;11.70;4.30;;;;;;;;;;4948352;29;19929;-63
2022/05/19 00:15:19;;;;;;;11.30;5.10;;;;;;;;;;4947599;29;20067;-64
2022/05/19 00:17:47;;;;;;;8.38;5.13;;;;;;;;;;4947669;29;20051;-65
2022/05/19 00:20:19;;;;;;;5.70;4.97;;;;;;;;;;4947390;29;20047;-64
2022/05/19 00:22:50;;;;;;;16.58;6.68;;;;;;;;;;4948098;29;20059;-64
2022/05/19 00:25:20;;;;;;;6.70;6.00;;;;;;;;;;4947350;29;20055;-64
2022/05/19 00:27:50;;;;;;;7.93;6.90;;;;;;;;;;4952183;29;20051;-64
2022/05/19 00:30:21;;;;;;;12.27;7.95;;;;;;;;;;4953347;28;20062;-64
2022/05/19 00:32:52;;;;;;;11.07;6.50;;;;;;;;;;4950039;29;20057;-64
2022/05/19 00:35:23;;;;;;;9.95;7.18;;;;;;;;;;4949948;29;20043;-64
2022/05/19 00:37:53;;;;;;;9.15;6.18;;;;;;;;;;4948442;29;20129;-65
2022/05/19 00:40:23;;;;;;;9.48;6.68;;;;;;;;;;4947619;29;20470;-64
2022/05/19 00:42:53;;;;;;;9.32;6.22;;;;;;;;;;4948294;29;20078;-64
2022/05/19 00:45:26;;;;;;;7.75;6.78;;;;;;;;;;4949249;29;20043;-61
2022/05/19 00:48:08;;;;;;;7.03;6.18;;;;;;;;;;4945948;29;20570;-63
2022/05/19 00:50:45;;;;;;;10.18;6.72;;;;;;;;;;4946513;29;20458;-65
2022/05/19 00:53:24;;;;;;;14.60;7.07;;;;;;;;;;4946163;29;20083;-63
2022/05/19 00:55:57;;;;;;;14.98;6.60;;;;;;;;;;4929845;29;20122;-62
2022/05/19 00:58:35;;;;;;;10.13;6.22;;;;;;;;;;4933202;29;20074;-63
2022/05/19 01:01:06;;;;;;;11.45;5.88;;;;;;;;;;4949364;29;20122;-63
2022/05/19 01:03:46;;;;;;;13.52;6.38;;;;;;;;;;4949297;29;20051;-63
2022/05/19 01:06:19;;;;;;;9.88;7.68;;;;;;;;;;4945560;29;20048;-63
2022/05/19 01:09:09;;;;;;;14.73;6.43;;;;;;;;;;4951751;29;20058;-63
2022/05/19 01:11:38;;;;;;;18.70;8.20;;;;;;;;;;4931997;29;20050;-62
2022/05/19 01:14:10;;;;;;;10.45;6.85;;;;;;;;;;4948876;28;20107;-65
2022/05/19 01:16:39;;;;;;;14.88;8.20;;;;;;;;;;4956619;29;20454;-63
2022/05/19 01:19:30;;;;;;;15.48;6.53;;;;;;;;;;4956905;29;20070;-65
2022/05/19 01:22:01;;;;;;;8.90;6.60;;;;;;;;;;4957057;29;20384;-63
2022/05/19 01:24:37;;;;;;;9.60;6.80;;;;;;;;;;4940232;29;20054;-64
2022/05/19 01:27:06;;;;;;;8.30;7.00;;;;;;;;;;4956696;29;20039;-65
2022/05/19 01:29:35;;;;;;;9.52;5.78;;;;;;;;;;4956885;29;20061;-65
2022/05/19 01:32:04;;;;;;;12.30;7.40;;;;;;;;;;4956498;29;20051;-64
2022/05/19 01:34:34;;;;;;;6.65;5.10;;;;;;;;;;4957012;29;20580;-65
2022/05/19 01:37:02;;;;;;;10.05;4.95;;;;;;;;;;4939202;29;20112;-64
2022/05/19 01:39:59;;;;;;;4.65;4.25;;;;;;;;;;4955604;29;20043;-64
2022/05/19 01:42:52;;;;;;;10.93;4.40;;;;;;;;;;4957028;28;20421;-64
2022/05/19 01:45:58;;;;;;;9.55;4.63;;;;;;;;;;4956622;29;20051;-65
2022/05/19 01:49:11;;;;;;;14.70;4.90;;;;;;;;;;4878256;29;20416;-64
2022/05/19 01:51:54;;;;;;;4.75;3.85;;;;;;;;;;4953580;29;20441;-64
2022/05/19 01:54:49;;;;;;;4.32;3.92;;;;;;;;;;4955880;28;20051;-64
2022/05/19 01:57:41;;;;;;;6.70;5.03;;;;;;;;;;4939873;29;20053;-64
2022/05/19 02:00:12;;;;;;;7.63;4.97;;;;;;;;;;4955546;29;20498;-64
2022/05/19 02:03:08;;;;;;;8.55;5.18;;;;;;;;;;4955716;29;20549;-63
2022/05/19 02:05:46;;;;;;;6.18;3.67;;;;;;;;;;4944292;29;20055;-64
2022/05/19 02:08:27;;;;;;;5.80;5.15;;;;;;;;;;4956709;29;20133;-64
2022/05/19 02:10:59;;;;;;;5.60;4.88;;;;;;;;;;4955085;29;20187;-65
2022/05/19 02:13:26;;;;;;;8.13;4.03;;;;;;;;;;4956074;29;20066;-64
2022/05/19 02:15:56;;;;;;;7.38;4.50;;;;;;;;;;4939072;29;20464;-65
2022/05/19 02:18:26;;;;;;;4.80;3.72;;;;;;;;;;4956109;29;20051;-65
2022/05/19 02:20:57;;;;;;;9.38;3.67;;;;;;;;;;4938962;29;20097;-64
2022/05/19 02:23:27;;;;;;;5.38;4.03;;;;;;;;;;4954311;29;20062;-65
2022/05/19 02:25:56;;;;;;;8.60;4.00;;;;;;;;;;4955549;29;20075;-64
2022/05/19 02:28:31;;;;;;;5.88;3.90;;;;;;;;;;4956095;29;20142;-64
2022/05/19 02:31:00;;;;;;;8.70;5.07;;;;;;;;;;4955943;29;20049;-63
2022/05/19 02:33:29;;;;;;;7.20;3.63;;;;;;;;;;4955891;29;20078;-64
2022/05/19 02:35:57;;;;;;;4.07;3.63;;;;;;;;;;4955259;29;20055;-65
2022/05/19 02:38:25;;;;;;;6.63;3.53;;;;;;;;;;4955645;29;20057;-65
2022/05/19 02:40:54;;;;;;;4.03;3.63;;;;;;;;;;4939130;29;20401;-65
2022/05/19 02:43:24;;;;;;;5.70;3.38;;;;;;;;;;4955491;29;20106;-65
2022/05/19 02:45:54;;;;;;;12.82;3.85;;;;;;;;;;4955430;29;20054;-65
2022/05/19 02:48:23;;;;;;;4.90;3.55;;;;;;;;;;4956110;29;20502;-64
2022/05/19 02:50:54;;;;;;;13.50;3.67;;;;;;;;;;4954040;29;20052;-65
2022/05/19 02:53:25;;;;;;;8.32;3.63;;;;;;;;;;4955927;29;20482;-65
2022/05/19 02:55:54;;;;;;;7.80;3.20;;;;;;;;;;4954828;28;20126;-65
2022/05/19 02:58:23;;;;;;;7.10;3.75;;;;;;;;;;4955590;29;20043;-64
2022/05/19 03:00:51;;;;;;;5.22;3.85;;;;;;;;;;4955088;29;20055;-64
2022/05/19 03:03:19;;;;;;;8.20;4.57;;;;;;;;;;4955789;29;20075;-64
2022/05/19 03:05:48;;;;;;;10.15;4.70;;;;;;;;;;4954662;29;20102;-64
2022/05/19 03:08:18;;;;;;;10.63;4.32;;;;;;;;;;4955032;29;20055;-65
2022/05/19 03:10:47;;;;;;;13.30;5.18;;;;;;;;;;4955486;29;20069;-65
2022/05/19 03:13:21;;;;;;;11.45;4.75;;;;;;;;;;4955186;29;20043;-63
2022/05/19 03:15:51;;;;;;;9.55;5.53;;;;;;;;;;4955674;29;20059;-63
2022/05/19 03:18:20;;;;;;;11.32;4.93;;;;;;;;;;4954661;29;20059;-64
2022/05/19 03:20:49;;;;;;;5.80;4.93;;;;;;;;;;4955367;29;20059;-62
2022/05/19 03:23:18;;;;;;;11.50;5.22;;;;;;;;;;4954815;29;20075;-63
2022/05/19 03:25:47;;;;;;;8.00;4.28;;;;;;;;;;4938759;29;20079;-63
2022/05/19 03:28:17;;;;;;;6.93;5.05;;;;;;;;;;4954778;29;20133;-62
2022/05/19 03:30:46;;;;;;;7.80;4.70;;;;;;;;;;4955229;29;20059;-64
2022/05/19 03:33:15;;;;;;;5.10;3.78;;;;;;;;;;4955476;29;20051;-63
2022/05/19 03:35:45;;;;;;;12.93;5.30;;;;;;;;;;4954806;29;20051;-62
2022/05/19 03:38:12;;;;;;;6.30;3.80;;;;;;;;;;4955363;29;20054;-63
2022/05/19 03:40:41;;;;;;;7.28;4.10;;;;;;;;;;4954703;29;20504;-63
2022/05/19 03:43:11;;;;;;;5.13;4.15;;;;;;;;;;4954995;29;20133;-62
2022/05/19 03:45:42;;;;;;;13.00;4.78;;;;;;;;;;4954604;29;20402;-62
2022/05/19 03:48:12;;;;;;;4.88;3.70;;;;;;;;;;4955350;29;20086;-63
2022/05/19 03:50:45;;;;;;;6.25;3.80;;;;;;;;;;4954450;29;20051;-63
2022/05/19 03:53:13;;;;;;;7.40;3.60;;;;;;;;;;4955108;29;20502;-63
2022/05/19 03:55:41;;;;;;;8.10;4.72;;;;;;;;;;4954715;29;20502;-62
2022/05/19 03:58:10;;;;;;;4.07;3.33;;;;;;;;;;4954588;29;20043;-62
2022/05/19 04:00:43;;;;;;;8.05;3.38;;;;;;;;;;4955328;29;20053;-62
2022/05/19 04:03:11;;;;;;;6.70;4.00;;;;;;;;;;4954887;29;20083;-62
2022/05/19 04:05:45;;;;;;;6.45;3.70;;;;;;;;;;4954767;29;20051;-62
2022/05/19 04:08:13;;;;;;;8.05;4.10;;;;;;;;;;4954466;29;20549;-64
2022/05/19 04:10:44;;;;;;;7.05;3.85;;;;;;;;;;4954542;29;20047;-63
2022/05/19 04:13:13;;;;;;;5.65;3.20;;;;;;;;;;4954826;29;20062;-63
2022/05/19 04:15:42;;;;;;;4.03;3.22;;;;;;;;;;4954849;29;20078;-63
2022/05/19 04:18:10;;;;;;;4.25;3.50;;;;;;;;;;4955121;28;20062;-63
2022/05/19 04:20:39;;;;;;;8.82;3.40;;;;;;;;;;4957795;29;20110;-63
2022/05/19 04:23:10;;;;;;;6.13;3.90;;;;;;;;;;4958441;28;20047;-63
2022/05/19 04:25:39;;;;;;;13.65;3.58;;;;;;;;;;4957944;29;20524;-63
2022/05/19 04:28:08;;;;;;;4.15;3.65;;;;;;;;;;4958339;29;20074;-63
2022/05/19 04:30:36;;;;;;;7.55;4.10;;;;;;;;;;4957852;29;20059;-62
2022/05/19 04:33:08;;;;;;;6.15;3.63;;;;;;;;;;4958783;29;20043;-63
2022/05/19 04:35:39;;;;;;;8.85;3.95;;;;;;;;;;4957440;29;20090;-63
2022/05/19 04:38:09;;;;;;;8.93;3.45;;;;;;;;;;4957813;29;20113;-63
2022/05/19 04:40:39;;;;;;;9.80;4.22;;;;;;;;;;4957617;29;20051;-63
2022/05/19 04:43:21;;;;;;;11.00;4.18;;;;;;;;;;4958286;29;20047;-63
2022/05/19 04:45:50;;;;;;;5.15;3.60;;;;;;;;;;4956549;29;20109;-62
2022/05/19 04:48:19;;;;;;;6.95;3.33;;;;;;;;;;4957198;29;20053;-63
2022/05/19 04:50:56;;;;;;;9.35;3.75;;;;;;;;;;4957840;29;20047;-62
2022/05/19 04:53:25;;;;;;;6.45;3.33;;;;;;;;;;4957334;29;20058;-61
2022/05/19 04:55:54;;;;;;;4.57;3.17;;;;;;;;;;4957518;29;20509;-62
2022/05/19 04:58:24;;;;;;;4.43;3.50;;;;;;;;;;4957157;29;20138;-61
2022/05/19 05:00:53;;;;;;;7.80;4.03;;;;;;;;;;4957347;29;20550;-63
2022/05/19 05:03:22;;;;;;;7.70;3.53;;;;;;;;;;4957287;29;20051;-63
2022/05/19 05:05:49;;;;;;;8.60;3.38;;;;;;;;;;4956866;29;20101;-63
2022/05/19 05:08:17;;;;;;;5.47;3.70;;;;;;;;;;4956510;29;20138;-63
2022/05/19 05:10:48;;;;;;;6.63;3.55;;;;;;;;;;4956909;29;20047;-63
2022/05/19 05:13:18;;;;;;;8.80;3.85;;;;;;;;;;4957083;29;20051;-63
2022/05/19 05:15:51;;;;;;;5.97;3.55;;;;;;;;;;4948855;29;20087;-64
2022/05/19 05:18:20;;;;;;;9.73;3.38;;;;;;;;;;4949809;29;20051;-64
2022/05/19 05:20:48;;;;;;;7.60;3.72;;;;;;;;;;4946641;29;20552;-66
2022/05/19 05:23:18;;;;;;;5.88;3.08;;;;;;;;;;4945520;29;20058;-65
2022/05/19 05:25:45;;;;;;;9.20;3.45;;;;;;;;;;4946363;29;20044;-73
2022/05/19 05:28:14;;;;;;;11.98;3.92;;;;;;;;;;4946311;29;20055;-75
2022/05/19 05:30:43;;;;;;;16.45;4.60;;;;;;;;;;4945862;28;20048;-75
2022/05/19 05:33:20;;;;;;;11.75;4.60;;;;;;;;;;4946099;29;20044;-74
2022/05/19 05:35:48;;;;;;;7.93;4.25;;;;;;;;;;4944762;29;20154;-75
2022/05/19 05:38:17;;;;;;;9.75;4.35;;;;;;;;;;4948037;29;20525;-74
2022/05/19 05:40:45;;;;;;;9.10;4.07;;;;;;;;;;4936780;28;20166;-75
2022/05/19 05:43:16;;;;;;;8.25;3.50;;;;;;;;;;4938234;29;20052;-77
2022/05/19 05:45:49;;;;;;;15.15;4.20;;;;;;;;;;4946741;29;20063;-75
2022/05/19 05:48:19;;;;;;;16.67;4.72;;;;;;;;;;4947875;29;20082;-74
2022/05/19 05:50:47;;;;;;;20.83;4.18;;;;;;;;;;4948268;29;20055;-76
2022/05/19 05:53:16;;;;;;;16.67;5.40;;;;;;;;;;4948330;29;20083;-73
2022/05/19 05:55:44;;;;;;;21.00;4.03;;;;;;;;;;4937564;29;20066;-74
2022/05/19 05:58:13;;;;;;;17.48;3.95;;;;;;;;;;4937179;29;20759;-67
2022/05/19 06:00:42;;;;;;;20.42;3.85;;;;;;;;;;4937480;29;20075;-68
2022/05/19 06:03:11;;;;;;;14.50;3.78;;;;;;;;;;4936465;29;20052;-68
2022/05/19 06:05:40;;;;;;;14.73;3.72;;;;;;;;;;4935124;29;20066;-69
2022/05/19 06:08:07;;;;;;;11.15;3.05;;;;;;;;;;4936222;29;20052;-69
2022/05/19 06:10:36;;;;;;;11.70;2.85;;;;;;;;;;4936550;29;20052;-69
2022/05/19 06:13:04;;;;;;;20.55;5.10;;;;;;;;;;4936770;29;20099;-69
2022/05/19 06:15:33;;;;;;;17.77;5.40;;;;;;;;;;4936713;29;20142;-69
2022/05/19 06:18:01;;;;;;;21.80;3.92;;;;;;;;;;4935763;29;20044;-68
2022/05/19 06:20:29;;;;;;;10.20;3.20;;;;;;;;;;4933555;29;20170;-69
2022/05/19 06:22:58;;;;;;;6.43;2.78;;;;;;;;;;4935029;29;20047;-66
2022/05/19 06:25:26;;;;;;;6.20;2.20;;;;;;;;;;4935780;29;20395;-66
2022/05/19 06:27:54;;;;;;;7.63;3.38;;;;;;;;;;4935368;29;20407;-69
2022/05/19 06:30:24;;;;;;;6.68;2.50;;;;;;;;;;4935615;29;20554;-69
2022/05/19 06:32:54;;;;;;;6.20;2.78;;;;;;;;;;4935750;29;20410;-68
2022/05/19 06:35:27;;;;;;;17.70;3.17;;;;;;;;;;4936697;29;20051;-68
2022/05/19 06:37:56;;;;;;;9.25;3.20;;;;;;;;;;4935965;29;20571;-69
2022/05/19 06:40:27;;;;;;;10.88;3.22;;;;;;;;;;4936512;29;20138;-67
2022/05/19 06:42:57;;;;;;;8.77;3.33;;;;;;;;;;4936405;29;20089;-68
2022/05/19 06:45:30;;;;;;;8.55;4.18;;;;;;;;;;4935347;29;20476;-68
2022/05/19 06:47:59;;;;;;;12.80;3.40;;;;;;;;;;4936674;29;20082;-68
2022/05/19 06:50:27;;;;;;;13.38;4.32;;;;;;;;;;4936133;29;20395;-66
2022/05/19 06:52:59;;;;;;;18.80;6.00;;;;;;;;;;4936351;29;20047;-66
2022/05/19 06:55:31;;;;;;;8.27;5.38;;;;;;;;;;4936378;29;20044;-68
2022/05/19 06:58:00;;;;;;;14.18;7.15;;;;;;;;;;4936363;29;20118;-66
2022/05/19 07:00:30;;;;;;;9.38;6.53;;;;;;;;;;4936493;29;20435;-66
2022/05/19 07:03:00;;;;;;;10.13;5.50;;;;;;;;;;4935461;29;20051;-68
2022/05/19 07:05:32;;;;;;;12.35;3.92;;;;;;;;;;4935982;29;20062;-66
2022/05/19 07:08:00;;;;;;;14.73;4.57;;;;;;;;;;4936484;29;20462;-66
2022/05/19 07:10:28;;;;;;;9.48;4.90;;;;;;;;;;4936454;29;20055;-66
2022/05/19 07:12:58;;;;;;;12.25;6.10;;;;;;;;;;4936014;29;20043;-66
2022/05/19 07:15:28;;;;;;;12.05;5.85;;;;;;;;;;4936561;29;20146;-66
2022/05/19 07:17:57;;;;;;;14.10;5.88;;;;;;;;;;4936395;29;20048;-66
2022/05/19 07:20:43;;;;;;;6.22;3.90;;;;;;;;;;4936255;29;20134;-66
2022/05/19 07:23:20;;;;;;;10.32;4.30;;;;;;;;;;4935550;29;20127;-66
2022/05/19 07:25:50;;;;;;;7.00;3.58;;;;;;;;;;4934939;29;20104;-66
2022/05/19 07:28:20;;;;;;;9.15;3.97;;;;;;;;;;4935791;29;20059;-66
2022/05/19 07:30:49;;;;;;;6.10;3.45;;;;;;;;;;4936501;29;20142;-66
2022/05/19 07:33:19;;;;;;;11.02;3.50;;;;;;;;;;4918574;29;20052;-66
2022/05/19 07:35:50;;;;;;;6.60;2.80;;;;;;;;;;4935960;29;20570;-66
2022/05/19 07:38:17;;;;;;;8.63;3.15;;;;;;;;;;4935799;29;20054;-66
2022/05/19 07:40:46;;;;;;;9.07;2.85;;;;;;;;;;4935556;29;20055;-67
2022/05/19 07:46:02;;;;;;;9.30;2.63;;;;;;;;;;4954525;29;20055;-67
2022/05/19 07:48:30;;;;;;;9.88;2.58;;;;;;;;;;4955078;29;20050;-67
2022/05/19 07:50:57;;;;;;;14.90;3.30;;;;;;;;;;4954540;29;20529;-67
2022/05/19 07:53:26;;;;;;;6.25;4.20;;;;;;;;;;4956776;28;20047;-68
2022/05/19 07:55:55;;;;;;;10.35;3.65;;;;;;;;;;4958432;29;20114;-67
2022/05/19 07:58:23;;;;;;;5.72;3.35;;;;;;;;;;4958818;29;20088;-67
2022/05/19 08:00:52;;;;;;;9.90;3.17;;;;;;;;;;4959074;29;20051;-67
2022/05/19 08:03:23;;;;;;;18.15;3.53;;;;;;;;;;4958376;29;20083;-67
2022/05/19 08:05:53;;;;;;;4.97;2.65;;;;;;;;;;4957626;29;20078;-67
2022/05/19 08:08:21;;;;;;;11.45;2.42;;;;;;;;;;4957286;29;20126;-67
2022/05/19 08:10:53;;;;;;;8.70;2.92;;;;;;;;;;4958627;29;20059;-67
2022/05/19 08:16:08;;;;;;;8.70;2.25;;;;;;;;;;4958783;29;20063;-68
2022/05/19 08:18:36;;;;;;;12.35;2.47;;;;;;;;;;4956613;29;20055;-68
2022/05/19 08:21:09;;;;;;;11.07;2.78;;;;;;;;;;4956597;29;20055;-67
2022/05/19 08:23:39;;;;;;;3.35;2.22;;;;;;;;;;4957738;29;20065;-67
2022/05/19 08:26:10;;;;;;;3.45;2.08;;;;;;;;;;4958561;29;20047;-67
2022/05/19 08:28:44;;;;;;;9.77;2.67;;;;;;;;;;4958449;29;20054;-68
2022/05/19 08:31:18;;;;;;;3.90;2.30;;;;;;;;;;4958039;29;20047;-68
2022/05/19 08:33:49;;;;;;;6.07;2.85;;;;;;;;;;4956651;29;20069;-68
2022/05/19 08:36:24;;;;;;;19.67;4.53;;;;;;;;;;4957265;29;20082;-68
2022/05/19 08:38:53;;;;;;;12.38;2.67;;;;;;;;;;4958223;29;20549;-68
2022/05/19 08:41:36;;;;;;;4.10;2.50;;;;;;;;;;4957481;29;20122;-68
2022/05/19 08:44:05;;;;;;;2.67;2.30;;;;;;;;;;4958151;29;20108;-67
2022/05/19 08:46:38;;;;;;;6.35;2.10;;;;;;;;;;4957267;29;20058;-68
2022/05/19 08:49:22;;;;;;;7.20;2.40;;;;;;;;;;4957763;29;20422;-68
2022/05/19 08:51:57;;;;;;;11.75;2.65;;;;;;;;;;4957605;29;20055;-68
2022/05/19 08:54:25;;;;;;;7.75;2.20;;;;;;;;;;4956915;29;20086;-68
2022/05/19 08:57:04;;;;;;;2.53;1.60;;;;;;;;;;4956091;29;20134;-68
2022/05/19 08:59:37;;;;;;;6.72;2.10;;;;;;;;;;4954596;29;20051;-68
2022/05/19 09:02:14;;;;;;;8.38;1.95;;;;;;;;;;4940970;29;20073;-68
2022/05/19 09:04:47;;;;;;;2.85;2.05;;;;;;;;;;4957396;28;20205;-68
2022/05/19 09:10:46;;;;;;;7.93;2.20;;;;;;;;;;4942922;29;20047;-68
2022/05/19 09:13:17;;;;;;;4.43;1.88;;;;;;;;;;4957699;29;20051;-68
2022/05/19 09:15:46;;;;;;;3.55;2.33;;;;;;;;;;4957194;29;20082;-68
2022/05/19 09:18:20;;;;;;;6.40;2.90;;;;;;;;;;4941368;29;20154;-69
2022/05/19 09:20:50;;;;;;;6.40;2.00;;;;;;;;;;4957176;29;20058;-68
2022/05/19 09:23:20;;;;;;;3.38;2.30;;;;;;;;;;4956300;29;20055;-68
2022/05/19 09:25:51;;;;;;;4.88;2.03;;;;;;;;;;4956904;29;20055;-68
2022/05/19 09:28:21;;;;;;;7.55;2.00;;;;;;;;;;4940517;29;20047;-68
2022/05/19 09:30:54;;;;;;;5.63;2.65;;;;;;;;;;4956484;29;20059;-68
2022/05/19 09:33:39;;;;;;;9.75;2.30;;;;;;;;;;4957313;29;20047;-68
2022/05/19 09:36:11;;;;;;;3.03;2.05;;;;;;;;;;4956371;29;20113;-68
2022/05/19 09:38:46;;;;;;;10.82;2.95;;;;;;;;;;4955787;29;20138;-68
2022/05/19 09:41:31;;;;;;;9.20;2.60;;;;;;;;;;4956906;29;20133;-68
2022/05/19 09:43:59;;;;;;;6.70;2.38;;;;;;;;;;4939898;29;20055;-68
2022/05/19 09:46:50;;;;;;;5.70;2.40;;;;;;;;;;4939844;29;20047;-68
2022/05/19 09:49:31;;;;;;;6.90;2.28;;;;;;;;;;4956589;29;20062;-68
2022/05/19 09:52:01;;;;;;;8.70;2.80;;;;;;;;;;4957016;29;20420;-68
2022/05/19 09:54:34;;;;;;;4.88;1.95;;;;;;;;;;4956477;29;20078;-68
2022/05/19 09:57:10;;;;;;;6.10;2.15;;;;;;;;;;4956742;29;20478;-68
2022/05/19 09:59:46;;;;;;;4.38;2.28;;;;;;;;;;4956355;29;20145;-68
2022/05/19 10:02:37;;;;;;;4.82;2.28;;;;;;;;;;4956775;29;20386;-68
2022/05/19 10:05:37;;;;;;;5.40;1.95;;;;;;;;;;4956471;29;20047;-68
2022/05/19 10:08:07;;;;;;;4.90;2.40;;;;;;;;;;4956585;29;20494;-68
2022/05/19 10:11:13;;;;;;;6.00;2.50;;;;;;;;;;4955526;29;20047;-68
2022/05/19 10:14:10;;;;;;;6.07;2.00;;;;;;;;;;4956463;29;20083;-68
2022/05/19 10:16:40;;;;;;;8.55;2.50;;;;;;;;;;4955239;28;20569;-68
2022/05/19 10:19:23;;;;;;;2.58;2.17;;;;;;;;;;4956453;29;20050;-69
2022/05/19 10:22:01;;;;;;;10.93;2.97;;;;;;;;;;4955702;29;20062;-68
2022/05/19 10:25:08;;;;;;;4.80;2.72;;;;;;;;;;4956182;29;20130;-68
2022/05/19 10:31:21;;;;;;;6.55;2.47;;;;;;;;;;4956137;29;20146;-68
2022/05/19 10:34:10;;;;;;;10.90;2.55;;;;;;;;;;4956044;29;20048;-68
2022/05/19 10:36:56;;;;;;;12.75;2.60;;;;;;;;;;4955811;29;20105;-68
2022/05/19 10:39:37;;;;;;;6.93;2.40;;;;;;;;;;4938533;29;20048;-68
2022/05/19 10:42:46;;;;;;;11.57;2.25;;;;;;;;;;4955941;29;20462;-68
2022/05/19 10:45:22;;;;;;;3.38;1.85;;;;;;;;;;4956074;29;20383;-68
2022/05/19 10:48:06;;;;;;;6.63;2.25;;;;;;;;;;4955796;29;20047;-68
2022/05/19 10:50:38;;;;;;;4.78;2.05;;;;;;;;;;4955961;29;20262;-68
2022/05/19 10:53:27;;;;;;;6.65;1.80;;;;;;;;;;4955550;29;20414;-68
2022/05/19 10:55:54;;;;;;;9.75;2.50;;;;;;;;;;4955622;29;20086;-69
2022/05/19 10:58:48;;;;;;;9.40;2.28;;;;;;;;;;4955688;29;20391;-69
2022/05/19 11:01:24;;;;;;;13.50;3.13;;;;;;;;;;4955563;29;20047;-69
2022/05/19 11:04:10;;;;;;;6.10;2.58;;;;;;;;;;4938789;29;20544;-69
2022/05/19 11:07:15;;;;;;;6.13;2.42;;;;;;;;;;4955179;29;20135;-69
2022/05/19 11:10:05;;;;;;;7.82;2.28;;;;;;;;;;4955602;29;20172;-69
2022/05/19 11:12:44;;;;;;;4.38;2.40;;;;;;;;;;4955413;29;20552;-69
2022/05/19 11:15:29;;;;;;;5.80;2.30;;;;;;;;;;4955786;29;20047;-69
2022/05/19 11:18:01;;;;;;;5.35;1.83;;;;;;;;;;4955356;29;20445;-69
2022/05/19 11:20:40;;;;;;;6.40;3.20;;;;;;;;;;4936754;29;20047;-69
2022/05/19 11:23:35;;;;;;;6.55;2.28;;;;;;;;;;4937731;29;20074;-69
2022/05/19 11:26:24;;;;;;;3.63;2.10;;;;;;;;;;4954360;29;20202;-69
2022/05/19 11:28:54;;;;;;;4.47;3.42;;;;;;;;;;4949564;28;20486;-68
2022/05/19 11:31:44;;;;;;;8.60;2.10;;;;;;;;;;4958680;29;20131;-67
2022/05/19 11:34:55;;;;;;;4.43;2.35;;;;;;;;;;4958315;29;20046;-70
2022/05/19 11:37:32;;;;;;;2.80;1.85;;;;;;;;;;4885672;29;20914;-71
2022/05/19 11:40:23;;;;;;;5.60;2.65;;;;;;;;;;4920228;29;20076;-70
2022/05/19 11:43:12;;;;;;;5.30;1.67;;;;;;;;;;4934844;29;20056;-70
2022/05/19 11:46:04;;;;;;;6.30;2.45;;;;;;;;;;4920578;29;20554;-70
2022/05/19 11:55:12;;;;;;;7.93;1.90;;;;;;;;;;4931768;29;20052;-69
2022/05/19 11:57:56;;;;;;;3.95;2.20;;;;;;;;;;4920156;29;20044;-70
2022/05/19 12:00:35;;;;;;;2.72;1.80;;;;;;;;;;4934105;29;20442;-71
2022/05/19 12:03:43;;;;;;;5.13;1.95;;;;;;;;;;4918804;29;20123;-71
2022/05/19 12:06:14;;;;;;;15.15;2.75;;;;;;;;;;4918272;29;20095;-70
2022/05/19 12:09:01;;;;;;;4.22;2.05;;;;;;;;;;4920081;29;20056;-71
2022/05/19 12:11:52;;;;;;;5.45;3.08;;;;;;;;;;4919448;29;20056;-69
2022/05/19 12:14:33;;;;;;;6.70;2.35;;;;;;;;;;4916930;29;20051;-70
2022/05/19 12:17:34;;;;;;;4.38;2.00;;;;;;;;;;4918441;29;20062;-69
2022/05/19 12:20:36;;;;;;;8.25;2.42;;;;;;;;;;4931707;29;20070;-72
2022/05/19 12:23:54;;;;;;;6.40;2.03;;;;;;;;;;4918457;29;20048;-69
2022/05/19 12:26:28;;;;;;;5.47;2.20;;;;;;;;;;4917410;29;20100;-70
2022/05/19 12:28:57;;;;;;;8.38;2.45;;;;;;;;;;4918839;29;20108;-70
2022/05/19 12:34:23;;;;;;;5.35;1.98;;;;;;;;;;4930922;29;20143;-70
2022/05/19 12:37:05;;;;;;;4.80;2.00;;;;;;;;;;4927423;29;20064;-70
2022/05/19 12:39:49;;;;;;;4.70;2.13;;;;;;;;;;4937728;29;20142;-69
2022/05/19 12:43:15;;;;;;;6.88;2.20;;;;;;;;;;4937200;29;20135;-66
2022/05/19 12:45:47;;;;;;;6.90;2.97;;;;;;;;;;4951931;29;20048;-66
2022/05/19 12:48:14;;;;;;;5.75;2.30;;;;;;;;;;4952406;29;20414;-67
2022/05/19 12:50:44;;;;;;;11.15;2.22;;;;;;;;;;4937355;29;20410;-66
2022/05/19 12:53:22;;;;;;;6.70;2.47;;;;;;;;;;4937867;29;20078;-66
2022/05/19 12:55:54;;;;;;;9.60;2.40;;;;;;;;;;4937150;29;20132;-66
2022/05/19 12:58:33;;;;;;;7.18;2.60;;;;;;;;;;4937391;29;20138;-66
2022/05/19 13:01:31;;;;;;;8.20;2.60;;;;;;;;;;4937182;29;20562;-67
2022/05/19 13:04:02;;;;;;;9.88;2.25;;;;;;;;;;4937791;29;20066;-66
2022/05/19 13:06:31;;;;;;;4.72;2.20;;;;;;;;;;4937472;29;20410;-66
2022/05/19 13:09:03;;;;;;;3.92;2.33;;;;;;;;;;4936970;29;20134;-67
2022/05/19 13:11:38;;;;;;;9.02;2.50;;;;;;;;;;4937158;29;20039;-65
2022/05/19 13:14:11;;;;;;;8.88;2.35;;;;;;;;;;4951146;29;20511;-66
2022/05/19 13:16:45;;;;;;;6.15;2.20;;;;;;;;;;4951968;29;20056;-68
2022/05/19 13:19:15;;;;;;;3.97;2.30;;;;;;;;;;4951597;29;20491;-65
2022/05/19 13:21:49;;;;;;;6.13;2.42;;;;;;;;;;4937641;29;20082;-66
2022/05/19 13:24:18;;;;;;;4.43;2.72;;;;;;;;;;4951149;29;20062;-65
2022/05/19 13:30:20;;;;;;;6.95;2.10;;;;;;;;;;4937853;29;20048;-65
2022/05/19 13:32:34;;;;;;;9.05;2.35;;;;;;;;;;4937992;29;19978;-71
2022/05/19 13:35:26;;;;;;;9.60;2.85;;;;;;;;;;4938053;29;20051;-70
2022/05/19 13:37:57;;;;;;;3.67;1.88;;;;;;;;;;4954611;29;20505;-70
2022/05/19 13:40:36;;;;;;;8.48;2.45;;;;;;;;;;4956203;29;20043;-76
2022/05/19 13:43:07;;;;;;;6.15;2.22;;;;;;;;;;4956154;29;20055;-76
2022/05/19 13:45:51;;;;;;;5.95;2.30;;;;;;;;;;4955165;29;20439;-75
2022/05/19 13:48:52;;;;;;;12.10;2.00;;;;;;;;;;4954492;29;20043;-76
2022/05/19 13:51:23;;;;;;;9.63;2.10;;;;;;;;;;4896225;29;20440;-76
2022/05/19 13:53:57;;;;;;;3.78;1.92;;;;;;;;;;4906986;29;20466;-76
2022/05/19 13:56:38;;;;;;;2.60;2.00;;;;;;;;;;4957120;29;20055;-76
2022/05/19 13:59:11;;;;;;;7.53;2.80;;;;;;;;;;4956557;29;20055;-75
2022/05/19 14:01:42;;;;;;;10.95;2.40;;;;;;;;;;4955713;29;20055;-74
2022/05/19 14:04:16;;;;;;;3.83;2.15;;;;;;;;;;4955650;29;20138;-74
2022/05/19 14:06:44;;;;;;;12.82;3.17;;;;;;;;;;4955310;29;20054;-77
2022/05/19 14:09:37;;;;;;;6.18;2.20;;;;;;;;;;4955845;29;20054;-75
2022/05/19 14:12:21;;;;;;;5.43;2.33;;;;;;;;;;4964257;28;20082;-76
2022/05/19 14:15:08;;;;;;;8.23;2.55;;;;;;;;;;4975506;28;20046;-76
2022/05/19 14:17:58;;;;;;;8.13;1.77;;;;;;;;;;4976065;28;20047;-75
2022/05/19 14:20:47;;;;;;;11.35;2.63;;;;;;;;;;4956285;28;20395;-78
2022/05/19 14:23:19;;;;;;;5.38;2.10;;;;;;;;;;4936833;29;20047;-76
2022/05/19 14:25:50;;;;;;;4.75;2.60;;;;;;;;;;4939092;29;20053;-77
2022/05/19 14:28:23;;;;;;;5.63;3.25;;;;;;;;;;4955064;29;20074;-76
2022/05/19 14:31:13;;;;;;;4.68;2.05;;;;;;;;;;4955484;29;20054;-76
2022/05/19 14:33:52;;;;;;;4.38;2.25;;;;;;;;;;4951982;29;20047;-77
2022/05/19 14:36:22;;;;;;;5.90;1.90;;;;;;;;;;4954706;29;20051;-76
2022/05/19 14:38:54;;;;;;;12.75;2.88;;;;;;;;;;4954479;29;20059;-76
2022/05/19 14:44:32;;;;;;;4.80;1.95;;;;;;;;;;4955903;29;20047;-76
2022/05/19 14:47:10;;;;;;;;;;;;;;;;;;4956357;29;20039;-77
2022/05/19 14:49:41;;;;;;;7.45;2.88;;;;;;;;;;4955189;29;19923;-77
2022/05/19 14:52:10;;;;;;;13.20;2.00;;;;;;;;;;4955895;29;20494;-76
2022/05/19 14:54:39;;;;;;;5.32;1.85;;;;;;;;;;4954758;29;20043;-76
2022/05/19 14:57:20;;;;;;;7.22;2.88;;;;;;;;;;4954555;29;20151;-75
2022/05/19 14:59:55;;;;;;;6.50;2.17;;;;;;;;;;4954062;29;20505;-75
2022/05/19 15:02:31;;;;;;;8.18;2.45;;;;;;;;;;4955040;28;20043;-76
2022/05/19 15:04:59;;;;;;;7.80;2.20;;;;;;;;;;4954953;29;20142;-75
2022/05/19 15:07:36;;;;;;;7.18;2.08;;;;;;;;;;4954816;29;20467;-78
2022/05/19 15:10:06;;;;;;;6.47;1.88;;;;;;;;;;4954686;28;20463;-76
2022/05/19 15:12:34;;;;;;;5.90;2.72;;;;;;;;;;4951102;28;20063;-74
2022/05/19 15:15:08;;;;;;;8.73;2.00;;;;;;;;;;4954867;29;20035;-73
2022/05/19 15:17:37;;;;;;;5.57;2.10;;;;;;;;;;4953907;29;20063;-72
2022/05/19 15:20:09;;;;;;;4.55;2.20;;;;;;;;;;4937808;29;20031;-75
2022/05/19 15:22:39;;;;;;;9.45;2.88;;;;;;;;;;4951890;29;20040;-75
2022/05/19 15:25:08;;;;;;;8.85;2.78;;;;;;;;;;4953802;29;20079;-75
2022/05/19 15:27:38;;;;;;;7.53;2.65;;;;;;;;;;4953494;29;20073;-75
2022/05/19 15:30:09;;;;;;;7.53;2.33;;;;;;;;;;4954655;29;20061;-77
2022/05/19 15:32:38;;;;;;;7.43;3.45;;;;;;;;;;4954174;29;20049;-77
2022/05/19 15:35:09;;;;;;;5.15;1.98;;;;;;;;;;4955342;29;20597;-77
2022/05/19 15:37:39;;;;;;;6.15;2.47;;;;;;;;;;4955418;29;20053;-76
2022/05/19 15:40:14;;;;;;;4.10;2.33;;;;;;;;;;4953993;29;20066;-77
2022/05/19 15:42:43;;;;;;;10.13;3.85;;;;;;;;;;4954732;29;20079;-76
2022/05/19 15:45:13;;;;;;;8.90;2.47;;;;;;;;;;4953440;29;20545;-77
2022/05/19 15:47:46;;;;;;;4.60;2.00;;;;;;;;;;4954018;29;20130;-77
2022/05/19 15:50:40;;;;;;;5.30;2.80;;;;;;;;;;4952629;29;20155;-77
2022/05/19 15:53:11;;;;;;;7.38;2.88;;;;;;;;;;4952112;29;20518;-77